sensor_id;sensor_type;location;lat;lon;timestamp;P1;durP1;ratioP1;P2;durP2;ratioP2
49590;SDS011;35496;-21.974;-46.800;2022-07-29T00:00:53;7.97;;;2.90;;
49590;SDS011;35496;-21.974;-46.800;2022-07-29T00:03:19;11.25;;;2.50;;
49590;SDS011;35496;-21.974;-46.800;2022-07-29T00:05:46;9.32;;;3.63;;
49590;SDS011;35496;-21.974;-46.800;2022-07-29T00:08:12;8.38;;;3.15;;
49590;SDS011;35496;-21.974;-46.800;2022-07-29T00:10:38;9.85;;;3.55;;
49590;SDS011;35496;-21.974;-46.800;2022-07-29T00:13:04;9.50;;;4.03;;
49590;SDS011;35496;-21.974;-46.800;2022-07-29T00:15:30;9.63;;;3.28;;
49590;SDS011;35496;-21.974;-46.800;2022-07-29T00:17:56;11.52;;;2.97;;
49590;SDS011;35496;-21.974;-46.800;2022-07-29T00:20:22;10.02;;;2.85;;
49590;SDS011;35496;-21.974;-46.800;2022-07-29T00:22:49;18.27;;;4.03;;
49590;SDS011;35496;-21.974;-46.800;2022-07-29T00:25:15;7.43;;;2.67;;
49590;SDS011;35496;-21.974;-46.800;2022-07-29T00:27:41;5.32;;;2.63;;
49590;SDS011;35496;-21.974;-46.800;2022-07-29T00:30:07;12.23;;;2.90;;
49590;SDS011;35496;-21.974;-46.800;2022-07-29T00:32:34;4.28;;;3.20;;
49590;SDS011;35496;-21.974;-46.800;2022-07-29T00:35:04;9.15;;;3.35;;
49590;SDS011;35496;-21.974;-46.800;2022-07-29T00:37:48;9.52;;;2.70;;
49590;SDS011;35496;-21.974;-46.800;2022-07-29T00:40:14;3.38;;;2.40;;
49590;SDS011;35496;-21.974;-46.800;2022-07-29T00:42:42;7.93;;;3.38;;
49590;SDS011;35496;-21.974;-46.800;2022-07-29T00:45:08;15.38;;;3.58;;
49590;SDS011;35496;-21.974;-46.800;2022-07-29T00:47:34;6.43;;;3.03;;
49590;SDS011;35496;-21.974;-46.800;2022-07-29T00:50:00;7.45;;;3.03;;
49590;SDS011;35496;-21.974;-46.800;2022-07-29T00:52:26;13.80;;;3.13;;
49590;SDS011;35496;-21.974;-46.800;2022-07-29T00:54:53;8.57;;;4.00;;
49590;SDS011;35496;-21.974;-46.800;2022-07-29T00:57:19;6.40;;;3.03;;
49590;SDS011;35496;-21.974;-46.800;2022-07-29T00:59:45;10.20;;;3.50;;
49590;SDS011;35496;-21.974;-46.800;2022-07-29T01:02:11;9.75;;;2.70;;
49590;SDS011;35496;-21.974;-46.800;2022-07-29T01:04:38;10.25;;;3.33;;
49590;SDS011;35496;-21.974;-46.800;2022-07-29T01:07:04;8.40;;;3.45;;
49590;SDS011;35496;-21.974;-46.800;2022-07-29T01:09:34;12.50;;;3.30;;
49590;SDS011;35496;-21.974;-46.800;2022-07-29T01:12:01;6.22;;;3.25;;
49590;SDS011;35496;-21.974;-46.800;2022-07-29T01:14:27;6.72;;;2.72;;
49590;SDS011;35496;-21.974;-46.800;2022-07-29T01:16:58;9.40;;;3.65;;
49590;SDS011;35496;-21.974;-46.800;2022-07-29T01:21:57;8.68;;;3.03;;
49590;SDS011;35496;-21.974;-46.800;2022-07-29T01:29:36;5.18;;;3.00;;
49590;SDS011;35496;-21.974;-46.800;2022-07-29T01:32:15;6.43;;;3.50;;
49590;SDS011;35496;-21.974;-46.800;2022-07-29T01:35:02;10.30;;;3.72;;
49590;SDS011;35496;-21.974;-46.800;2022-07-29T01:39:55;10.55;;;3.95;;
49590;SDS011;35496;-21.974;-46.800;2022-07-29T01:42:55;16.85;;;3.33;;
49590;SDS011;35496;-21.974;-46.800;2022-07-29T01:45:15;7.60;;;3.08;;
49590;SDS011;35496;-21.974;-46.800;2022-07-29T01:50:18;6.82;;;3.20;;
49590;SDS011;35496;-21.974;-46.800;2022-07-29T01:52:54;3.17;;;2.35;;
49590;SDS011;35496;-21.974;-46.800;2022-07-29T01:55:22;6.18;;;2.63;;
49590;SDS011;35496;-21.974;-46.800;2022-07-29T01:57:49;8.75;;;3.55;;
49590;SDS011;35496;-21.974;-46.800;2022-07-29T02:00:16;15.60;;;4.32;;
49590;SDS011;35496;-21.974;-46.800;2022-07-29T02:02:43;7.03;;;2.47;;
49590;SDS011;35496;-21.974;-46.800;2022-07-29T02:05:10;6.63;;;3.38;;
49590;SDS011;35496;-21.974;-46.800;2022-07-29T02:07:37;7.60;;;2.78;;
49590;SDS011;35496;-21.974;-46.800;2022-07-29T02:10:03;9.73;;;3.88;;
49590;SDS011;35496;-21.974;-46.800;2022-07-29T02:12:31;5.82;;;2.42;;
49590;SDS011;35496;-21.974;-46.800;2022-07-29T02:14:59;9.88;;;3.03;;
49590;SDS011;35496;-21.974;-46.800;2022-07-29T02:17:27;7.03;;;2.85;;
49590;SDS011;35496;-21.974;-46.800;2022-07-29T02:19:56;8.60;;;2.83;;
49590;SDS011;35496;-21.974;-46.800;2022-07-29T02:22:22;9.10;;;3.35;;
49590;SDS011;35496;-21.974;-46.800;2022-07-29T02:24:50;4.20;;;3.00;;
49590;SDS011;35496;-21.974;-46.800;2022-07-29T02:27:17;6.07;;;3.20;;
49590;SDS011;35496;-21.974;-46.800;2022-07-29T02:29:44;7.45;;;3.78;;
49590;SDS011;35496;-21.974;-46.800;2022-07-29T02:32:11;7.65;;;3.05;;
49590;SDS011;35496;-21.974;-46.800;2022-07-29T02:34:39;8.07;;;3.85;;
49590;SDS011;35496;-21.974;-46.800;2022-07-29T02:37:08;6.10;;;2.88;;
49590;SDS011;35496;-21.974;-46.800;2022-07-29T02:39:35;9.15;;;2.70;;
49590;SDS011;35496;-21.974;-46.800;2022-07-29T02:42:03;6.60;;;2.72;;
49590;SDS011;35496;-21.974;-46.800;2022-07-29T02:44:31;2.03;;;1.92;;
49590;SDS011;35496;-21.974;-46.800;2022-07-29T02:49:34;10.05;;;2.95;;
49590;SDS011;35496;-21.974;-46.800;2022-07-29T02:52:12;8.68;;;3.85;;
49590;SDS011;35496;-21.974;-46.800;2022-07-29T02:55:00;7.05;;;2.92;;
49590;SDS011;35496;-21.974;-46.800;2022-07-29T02:57:38;7.15;;;3.05;;
49590;SDS011;35496;-21.974;-46.800;2022-07-29T03:00:07;17.73;;;4.30;;
49590;SDS011;35496;-21.974;-46.800;2022-07-29T03:02:36;11.02;;;3.83;;
49590;SDS011;35496;-21.974;-46.800;2022-07-29T03:05:03;8.98;;;3.53;;
49590;SDS011;35496;-21.974;-46.800;2022-07-29T03:07:31;9.38;;;2.88;;
49590;SDS011;35496;-21.974;-46.800;2022-07-29T03:09:59;9.43;;;2.92;;
49590;SDS011;35496;-21.974;-46.800;2022-07-29T03:12:25;5.75;;;3.10;;
49590;SDS011;35496;-21.974;-46.800;2022-07-29T03:14:52;9.38;;;3.10;;
49590;SDS011;35496;-21.974;-46.800;2022-07-29T03:17:18;8.48;;;2.92;;
49590;SDS011;35496;-21.974;-46.800;2022-07-29T03:19:45;8.57;;;3.70;;
49590;SDS011;35496;-21.974;-46.800;2022-07-29T03:22:11;9.05;;;3.28;;
49590;SDS011;35496;-21.974;-46.800;2022-07-29T03:24:37;19.30;;;3.85;;
49590;SDS011;35496;-21.974;-46.800;2022-07-29T03:27:04;12.40;;;3.50;;
49590;SDS011;35496;-21.974;-46.800;2022-07-29T03:29:31;6.72;;;2.20;;
49590;SDS011;35496;-21.974;-46.800;2022-07-29T03:31:57;6.13;;;3.05;;
49590;SDS011;35496;-21.974;-46.800;2022-07-29T03:34:23;8.18;;;3.30;;
49590;SDS011;35496;-21.974;-46.800;2022-07-29T03:36:49;18.58;;;3.20;;
49590;SDS011;35496;-21.974;-46.800;2022-07-29T03:39:18;4.30;;;2.80;;
49590;SDS011;35496;-21.974;-46.800;2022-07-29T03:41:47;7.95;;;4.03;;
49590;SDS011;35496;-21.974;-46.800;2022-07-29T03:44:14;12.60;;;3.33;;
49590;SDS011;35496;-21.974;-46.800;2022-07-29T03:46:43;9.80;;;3.97;;
49590;SDS011;35496;-21.974;-46.800;2022-07-29T03:49:10;9.95;;;4.28;;
49590;SDS011;35496;-21.974;-46.800;2022-07-29T03:51:36;9.10;;;2.38;;
49590;SDS011;35496;-21.974;-46.800;2022-07-29T03:54:04;16.15;;;3.75;;
49590;SDS011;35496;-21.974;-46.800;2022-07-29T03:56:32;4.93;;;2.85;;
49590;SDS011;35496;-21.974;-46.800;2022-07-29T03:58:58;6.90;;;3.28;;
49590;SDS011;35496;-21.974;-46.800;2022-07-29T04:01:25;8.25;;;3.22;;
49590;SDS011;35496;-21.974;-46.800;2022-07-29T04:03:53;9.07;;;3.13;;
49590;SDS011;35496;-21.974;-46.800;2022-07-29T04:06:19;20.42;;;6.68;;
49590;SDS011;35496;-21.974;-46.800;2022-07-29T04:08:45;13.13;;;5.30;;
49590;SDS011;35496;-21.974;-46.800;2022-07-29T04:11:11;18.33;;;6.28;;
49590;SDS011;35496;-21.974;-46.800;2022-07-29T04:13:38;13.98;;;5.40;;
49590;SDS011;35496;-21.974;-46.800;2022-07-29T04:16:04;18.08;;;6.20;;
49590;SDS011;35496;-21.974;-46.800;2022-07-29T04:18:30;10.27;;;6.65;;
49590;SDS011;35496;-21.974;-46.800;2022-07-29T04:20:56;21.88;;;7.07;;
49590;SDS011;35496;-21.974;-46.800;2022-07-29T04:23:26;21.83;;;7.43;;
49590;SDS011;35496;-21.974;-46.800;2022-07-29T04:25:52;12.15;;;5.88;;
49590;SDS011;35496;-21.974;-46.800;2022-07-29T04:28:18;15.73;;;6.60;;
49590;SDS011;35496;-21.974;-46.800;2022-07-29T04:30:45;19.60;;;8.13;;
49590;SDS011;35496;-21.974;-46.800;2022-07-29T04:33:11;20.30;;;7.25;;
49590;SDS011;35496;-21.974;-46.800;2022-07-29T04:35:37;11.48;;;6.00;;
49590;SDS011;35496;-21.974;-46.800;2022-07-29T04:38:04;11.25;;;6.65;;
49590;SDS011;35496;-21.974;-46.800;2022-07-29T04:40:30;13.95;;;6.05;;
49590;SDS011;35496;-21.974;-46.800;2022-07-29T04:42:59;18.13;;;7.68;;
49590;SDS011;35496;-21.974;-46.800;2022-07-29T04:45:25;17.98;;;7.45;;
49590;SDS011;35496;-21.974;-46.800;2022-07-29T04:47:51;28.20;;;8.30;;
49590;SDS011;35496;-21.974;-46.800;2022-07-29T04:50:17;14.63;;;8.07;;
49590;SDS011;35496;-21.974;-46.800;2022-07-29T04:52:43;14.27;;;8.27;;
49590;SDS011;35496;-21.974;-46.800;2022-07-29T04:55:09;27.08;;;9.43;;
49590;SDS011;35496;-21.974;-46.800;2022-07-29T04:57:36;12.70;;;8.15;;
49590;SDS011;35496;-21.974;-46.800;2022-07-29T05:00:02;18.73;;;9.02;;
49590;SDS011;35496;-21.974;-46.800;2022-07-29T05:02:29;19.13;;;9.60;;
49590;SDS011;35496;-21.974;-46.800;2022-07-29T05:04:55;18.98;;;8.68;;
49590;SDS011;35496;-21.974;-46.800;2022-07-29T05:07:21;16.00;;;7.95;;
49590;SDS011;35496;-21.974;-46.800;2022-07-29T05:09:47;10.98;;;8.07;;
49590;SDS011;35496;-21.974;-46.800;2022-07-29T05:12:13;27.75;;;9.27;;
49590;SDS011;35496;-21.974;-46.800;2022-07-29T05:14:39;20.25;;;9.05;;
49590;SDS011;35496;-21.974;-46.800;2022-07-29T05:17:05;10.70;;;5.22;;
49590;SDS011;35496;-21.974;-46.800;2022-07-29T05:19:32;20.92;;;8.63;;
49590;SDS011;35496;-21.974;-46.800;2022-07-29T05:21:58;15.90;;;10.07;;
49590;SDS011;35496;-21.974;-46.800;2022-07-29T05:24:25;14.40;;;8.63;;
49590;SDS011;35496;-21.974;-46.800;2022-07-29T05:26:51;18.27;;;8.80;;
49590;SDS011;35496;-21.974;-46.800;2022-07-29T05:29:17;19.38;;;8.48;;
49590;SDS011;35496;-21.974;-46.800;2022-07-29T05:31:44;13.00;;;8.32;;
49590;SDS011;35496;-21.974;-46.800;2022-07-29T05:34:10;20.15;;;7.25;;
49590;SDS011;35496;-21.974;-46.800;2022-07-29T05:36:36;14.10;;;7.72;;
49590;SDS011;35496;-21.974;-46.800;2022-07-29T05:39:02;18.23;;;7.28;;
49590;SDS011;35496;-21.974;-46.800;2022-07-29T05:41:31;19.48;;;7.30;;
49590;SDS011;35496;-21.974;-46.800;2022-07-29T05:43:57;11.48;;;6.43;;
49590;SDS011;35496;-21.974;-46.800;2022-07-29T05:46:24;13.68;;;6.00;;
49590;SDS011;35496;-21.974;-46.800;2022-07-29T05:48:50;17.65;;;6.68;;
49590;SDS011;35496;-21.974;-46.800;2022-07-29T05:51:16;13.52;;;5.43;;
49590;SDS011;35496;-21.974;-46.800;2022-07-29T05:53:42;16.05;;;6.15;;
49590;SDS011;35496;-21.974;-46.800;2022-07-29T05:56:08;8.63;;;5.10;;
49590;SDS011;35496;-21.974;-46.800;2022-07-29T05:58:34;9.73;;;4.60;;
49590;SDS011;35496;-21.974;-46.800;2022-07-29T06:01:01;17.55;;;5.78;;
49590;SDS011;35496;-21.974;-46.800;2022-07-29T06:03:28;15.07;;;5.90;;
49590;SDS011;35496;-21.974;-46.800;2022-07-29T06:05:54;8.38;;;5.43;;
49590;SDS011;35496;-21.974;-46.800;2022-07-29T06:08:20;11.80;;;5.05;;
49590;SDS011;35496;-21.974;-46.800;2022-07-29T06:10:46;16.55;;;9.10;;
49590;SDS011;35496;-21.974;-46.800;2022-07-29T06:13:12;22.92;;;9.50;;
49590;SDS011;35496;-21.974;-46.800;2022-07-29T06:15:41;14.55;;;7.57;;
49590;SDS011;35496;-21.974;-46.800;2022-07-29T06:18:07;16.33;;;6.97;;
49590;SDS011;35496;-21.974;-46.800;2022-07-29T06:20:35;17.15;;;8.15;;
49590;SDS011;35496;-21.974;-46.800;2022-07-29T06:23:01;15.57;;;7.53;;
49590;SDS011;35496;-21.974;-46.800;2022-07-29T06:25:29;14.93;;;6.28;;
49590;SDS011;35496;-21.974;-46.800;2022-07-29T06:27:56;10.90;;;6.38;;
49590;SDS011;35496;-21.974;-46.800;2022-07-29T06:30:22;6.07;;;4.88;;
49590;SDS011;35496;-21.974;-46.800;2022-07-29T06:32:48;25.92;;;7.03;;
49590;SDS011;35496;-21.974;-46.800;2022-07-29T06:35:14;13.38;;;6.40;;
49590;SDS011;35496;-21.974;-46.800;2022-07-29T06:37:41;11.48;;;5.07;;
49590;SDS011;35496;-21.974;-46.800;2022-07-29T06:40:07;18.38;;;9.23;;
49590;SDS011;35496;-21.974;-46.800;2022-07-29T06:42:51;16.73;;;9.32;;
49590;SDS011;35496;-21.974;-46.800;2022-07-29T06:45:17;17.92;;;8.63;;
49590;SDS011;35496;-21.974;-46.800;2022-07-29T06:47:43;19.88;;;10.20;;
49590;SDS011;35496;-21.974;-46.800;2022-07-29T06:50:09;12.68;;;6.15;;
49590;SDS011;35496;-21.974;-46.800;2022-07-29T06:52:40;10.85;;;5.00;;
49590;SDS011;35496;-21.974;-46.800;2022-07-29T06:55:07;14.32;;;7.18;;
49590;SDS011;35496;-21.974;-46.800;2022-07-29T06:57:33;15.38;;;9.13;;
49590;SDS011;35496;-21.974;-46.800;2022-07-29T07:00:00;15.30;;;8.45;;
49590;SDS011;35496;-21.974;-46.800;2022-07-29T07:02:26;26.42;;;10.05;;
49590;SDS011;35496;-21.974;-46.800;2022-07-29T07:04:52;17.20;;;9.23;;
49590;SDS011;35496;-21.974;-46.800;2022-07-29T07:07:18;16.25;;;8.73;;
49590;SDS011;35496;-21.974;-46.800;2022-07-29T07:09:44;8.02;;;5.15;;
49590;SDS011;35496;-21.974;-46.800;2022-07-29T07:12:10;11.65;;;7.93;;
49590;SDS011;35496;-21.974;-46.800;2022-07-29T07:14:36;17.08;;;9.50;;
49590;SDS011;35496;-21.974;-46.800;2022-07-29T07:17:02;16.65;;;7.90;;
49590;SDS011;35496;-21.974;-46.800;2022-07-29T07:19:29;22.92;;;10.68;;
49590;SDS011;35496;-21.974;-46.800;2022-07-29T07:21:55;23.15;;;11.68;;
49590;SDS011;35496;-21.974;-46.800;2022-07-29T07:24:21;16.83;;;11.35;;
49590;SDS011;35496;-21.974;-46.800;2022-07-29T07:26:47;24.88;;;9.85;;
49590;SDS011;35496;-21.974;-46.800;2022-07-29T07:29:13;15.80;;;10.27;;
49590;SDS011;35496;-21.974;-46.800;2022-07-29T07:31:40;19.05;;;10.40;;
49590;SDS011;35496;-21.974;-46.800;2022-07-29T07:34:06;12.63;;;8.98;;
49590;SDS011;35496;-21.974;-46.800;2022-07-29T07:36:32;26.58;;;10.20;;
49590;SDS011;35496;-21.974;-46.800;2022-07-29T07:38:58;16.55;;;9.13;;
49590;SDS011;35496;-21.974;-46.800;2022-07-29T07:41:24;19.85;;;9.82;;
49590;SDS011;35496;-21.974;-46.800;2022-07-29T07:43:50;11.45;;;7.50;;
49590;SDS011;35496;-21.974;-46.800;2022-07-29T07:46:16;23.77;;;10.55;;
49590;SDS011;35496;-21.974;-46.800;2022-07-29T07:48:42;24.83;;;9.88;;
49590;SDS011;35496;-21.974;-46.800;2022-07-29T07:51:09;17.55;;;10.55;;
49590;SDS011;35496;-21.974;-46.800;2022-07-29T07:53:35;10.38;;;7.70;;
49590;SDS011;35496;-21.974;-46.800;2022-07-29T07:56:01;14.90;;;7.70;;
49590;SDS011;35496;-21.974;-46.800;2022-07-29T07:58:29;11.15;;;7.43;;
49590;SDS011;35496;-21.974;-46.800;2022-07-29T08:00:55;24.58;;;10.95;;
49590;SDS011;35496;-21.974;-46.800;2022-07-29T08:03:21;13.00;;;8.93;;
49590;SDS011;35496;-21.974;-46.800;2022-07-29T08:05:48;11.10;;;6.57;;
49590;SDS011;35496;-21.974;-46.800;2022-07-29T08:08:16;11.27;;;7.90;;
49590;SDS011;35496;-21.974;-46.800;2022-07-29T08:10:42;11.25;;;5.75;;
49590;SDS011;35496;-21.974;-46.800;2022-07-29T08:13:24;7.77;;;7.03;;
49590;SDS011;35496;-21.974;-46.800;2022-07-29T08:15:53;22.55;;;9.38;;
49590;SDS011;35496;-21.974;-46.800;2022-07-29T08:18:23;11.20;;;6.72;;
49590;SDS011;35496;-21.974;-46.800;2022-07-29T08:20:50;9.43;;;6.20;;
49590;SDS011;35496;-21.974;-46.800;2022-07-29T08:23:16;17.35;;;9.57;;
49590;SDS011;35496;-21.974;-46.800;2022-07-29T08:25:44;12.65;;;7.95;;
49590;SDS011;35496;-21.974;-46.800;2022-07-29T08:28:10;16.95;;;7.15;;
49590;SDS011;35496;-21.974;-46.800;2022-07-29T08:30:36;12.63;;;7.93;;
49590;SDS011;35496;-21.974;-46.800;2022-07-29T08:33:03;24.80;;;9.18;;
49590;SDS011;35496;-21.974;-46.800;2022-07-29T08:35:29;14.43;;;9.18;;
49590;SDS011;35496;-21.974;-46.800;2022-07-29T08:37:56;17.40;;;8.27;;
49590;SDS011;35496;-21.974;-46.800;2022-07-29T08:40:22;16.15;;;7.55;;
49590;SDS011;35496;-21.974;-46.800;2022-07-29T08:42:49;12.60;;;7.63;;
49590;SDS011;35496;-21.974;-46.800;2022-07-29T08:45:15;9.02;;;7.22;;
49590;SDS011;35496;-21.974;-46.800;2022-07-29T08:47:43;15.55;;;8.15;;
49590;SDS011;35496;-21.974;-46.800;2022-07-29T08:50:11;11.60;;;6.28;;
49590;SDS011;35496;-21.974;-46.800;2022-07-29T08:52:38;13.38;;;5.35;;
49590;SDS011;35496;-21.974;-46.800;2022-07-29T08:55:05;13.98;;;6.32;;
49590;SDS011;35496;-21.974;-46.800;2022-07-29T08:57:31;13.18;;;6.75;;
49590;SDS011;35496;-21.974;-46.800;2022-07-29T08:59:58;14.68;;;6.32;;
49590;SDS011;35496;-21.974;-46.800;2022-07-29T09:02:25;10.27;;;6.15;;
49590;SDS011;35496;-21.974;-46.800;2022-07-29T09:04:52;9.35;;;6.30;;
49590;SDS011;35496;-21.974;-46.800;2022-07-29T09:07:18;11.95;;;5.65;;
49590;SDS011;35496;-21.974;-46.800;2022-07-29T09:09:45;11.50;;;7.00;;
49590;SDS011;35496;-21.974;-46.800;2022-07-29T09:12:11;17.52;;;7.53;;
49590;SDS011;35496;-21.974;-46.800;2022-07-29T09:14:38;10.00;;;5.97;;
49590;SDS011;35496;-21.974;-46.800;2022-07-29T09:17:05;9.52;;;5.40;;
49590;SDS011;35496;-21.974;-46.800;2022-07-29T09:19:32;11.90;;;6.22;;
49590;SDS011;35496;-21.974;-46.800;2022-07-29T09:22:00;5.63;;;5.13;;
49590;SDS011;35496;-21.974;-46.800;2022-07-29T09:29:25;7.30;;;5.60;;
49590;SDS011;35496;-21.974;-46.800;2022-07-29T09:31:54;8.73;;;6.03;;
49590;SDS011;35496;-21.974;-46.800;2022-07-29T09:34:24;13.10;;;5.57;;
49590;SDS011;35496;-21.974;-46.800;2022-07-29T09:36:51;9.40;;;5.85;;
49590;SDS011;35496;-21.974;-46.800;2022-07-29T09:39:28;8.73;;;4.55;;
49590;SDS011;35496;-21.974;-46.800;2022-07-29T09:41:55;6.40;;;5.43;;
49590;SDS011;35496;-21.974;-46.800;2022-07-29T09:44:22;10.25;;;5.90;;
49590;SDS011;35496;-21.974;-46.800;2022-07-29T09:46:53;15.35;;;7.53;;
49590;SDS011;35496;-21.974;-46.800;2022-07-29T09:49:19;14.93;;;9.75;;
49590;SDS011;35496;-21.974;-46.800;2022-07-29T09:51:45;14.30;;;9.77;;
49590;SDS011;35496;-21.974;-46.800;2022-07-29T09:54:29;16.05;;;10.18;;
49590;SDS011;35496;-21.974;-46.800;2022-07-29T09:57:02;15.70;;;10.18;;
49590;SDS011;35496;-21.974;-46.800;2022-07-29T09:59:28;13.65;;;9.57;;
49590;SDS011;35496;-21.974;-46.800;2022-07-29T10:01:55;26.02;;;9.60;;
49590;SDS011;35496;-21.974;-46.800;2022-07-29T10:04:22;9.30;;;7.25;;
49590;SDS011;35496;-21.974;-46.800;2022-07-29T10:09:23;23.25;;;8.07;;
49590;SDS011;35496;-21.974;-46.800;2022-07-29T10:12:03;12.13;;;6.43;;
49590;SDS011;35496;-21.974;-46.800;2022-07-29T10:14:33;24.27;;;7.15;;
49590;SDS011;35496;-21.974;-46.800;2022-07-29T10:17:00;10.85;;;6.45;;
49590;SDS011;35496;-21.974;-46.800;2022-07-29T10:19:29;22.98;;;7.80;;
49590;SDS011;35496;-21.974;-46.800;2022-07-29T10:22:00;18.17;;;7.97;;
49590;SDS011;35496;-21.974;-46.800;2022-07-29T10:24:27;13.68;;;7.38;;
49590;SDS011;35496;-21.974;-46.800;2022-07-29T10:26:57;9.00;;;6.10;;
49590;SDS011;35496;-21.974;-46.800;2022-07-29T10:29:23;26.17;;;9.18;;
49590;SDS011;35496;-21.974;-46.800;2022-07-29T10:34:36;10.20;;;5.97;;
49590;SDS011;35496;-21.974;-46.800;2022-07-29T10:42:11;19.15;;;10.43;;
49590;SDS011;35496;-21.974;-46.800;2022-07-29T10:44:40;22.02;;;11.43;;
49590;SDS011;35496;-21.974;-46.800;2022-07-29T10:47:06;23.75;;;10.30;;
49590;SDS011;35496;-21.974;-46.800;2022-07-29T10:49:32;24.27;;;12.77;;
49590;SDS011;35496;-21.974;-46.800;2022-07-29T10:52:10;23.90;;;9.95;;
49590;SDS011;35496;-21.974;-46.800;2022-07-29T10:57:17;16.48;;;9.40;;
49590;SDS011;35496;-21.974;-46.800;2022-07-29T10:59:45;24.30;;;10.48;;
49590;SDS011;35496;-21.974;-46.800;2022-07-29T11:07:23;26.52;;;9.68;;
49590;SDS011;35496;-21.974;-46.800;2022-07-29T11:15:03;18.38;;;10.48;;
49590;SDS011;35496;-21.974;-46.800;2022-07-29T11:18:04;19.95;;;9.75;;
49590;SDS011;35496;-21.974;-46.800;2022-07-29T11:22:58;14.52;;;5.50;;
49590;SDS011;35496;-21.974;-46.800;2022-07-29T11:25:25;10.45;;;5.15;;
49590;SDS011;35496;-21.974;-46.800;2022-07-29T11:27:51;8.48;;;4.25;;
49590;SDS011;35496;-21.974;-46.800;2022-07-29T11:30:18;13.45;;;4.50;;
49590;SDS011;35496;-21.974;-46.800;2022-07-29T11:32:44;11.27;;;5.45;;
49590;SDS011;35496;-21.974;-46.800;2022-07-29T11:35:21;10.45;;;5.60;;
49590;SDS011;35496;-21.974;-46.800;2022-07-29T11:40:33;9.70;;;5.00;;
49590;SDS011;35496;-21.974;-46.800;2022-07-29T11:42:59;9.95;;;3.67;;
49590;SDS011;35496;-21.974;-46.800;2022-07-29T11:45:25;6.90;;;3.88;;
49590;SDS011;35496;-21.974;-46.800;2022-07-29T11:47:58;17.27;;;5.47;;
49590;SDS011;35496;-21.974;-46.800;2022-07-29T11:50:35;31.52;;;8.10;;
49590;SDS011;35496;-21.974;-46.800;2022-07-29T11:53:02;15.98;;;7.43;;
49590;SDS011;35496;-21.974;-46.800;2022-07-29T11:55:28;27.75;;;8.80;;
49590;SDS011;35496;-21.974;-46.800;2022-07-29T11:57:59;23.85;;;9.50;;
49590;SDS011;35496;-21.974;-46.800;2022-07-29T12:00:27;32.03;;;8.50;;
49590;SDS011;35496;-21.974;-46.800;2022-07-29T12:02:54;19.10;;;7.63;;
49590;SDS011;35496;-21.974;-46.800;2022-07-29T12:05:21;26.90;;;7.22;;
49590;SDS011;35496;-21.974;-46.800;2022-07-29T12:07:47;10.32;;;4.75;;
49590;SDS011;35496;-21.974;-46.800;2022-07-29T12:10:14;10.93;;;5.78;;
49590;SDS011;35496;-21.974;-46.800;2022-07-29T12:12:41;17.20;;;5.22;;
49590;SDS011;35496;-21.974;-46.800;2022-07-29T12:15:17;13.75;;;4.45;;
49590;SDS011;35496;-21.974;-46.800;2022-07-29T12:17:46;12.27;;;6.65;;
49590;SDS011;35496;-21.974;-46.800;2022-07-29T12:20:12;12.60;;;5.32;;
49590;SDS011;35496;-21.974;-46.800;2022-07-29T12:22:39;16.10;;;4.68;;
49590;SDS011;35496;-21.974;-46.800;2022-07-29T12:25:07;20.25;;;5.63;;
49590;SDS011;35496;-21.974;-46.800;2022-07-29T12:27:35;12.57;;;4.97;;
49590;SDS011;35496;-21.974;-46.800;2022-07-29T12:30:06;25.80;;;3.30;;
49590;SDS011;35496;-21.974;-46.800;2022-07-29T12:32:33;6.78;;;2.80;;
49590;SDS011;35496;-21.974;-46.800;2022-07-29T12:35:02;5.72;;;2.70;;
49590;SDS011;35496;-21.974;-46.800;2022-07-29T12:37:28;5.63;;;2.47;;
49590;SDS011;35496;-21.974;-46.800;2022-07-29T12:39:55;5.97;;;2.00;;
49590;SDS011;35496;-21.974;-46.800;2022-07-29T12:42:21;16.35;;;3.17;;
49590;SDS011;35496;-21.974;-46.800;2022-07-29T12:44:48;7.28;;;2.03;;
49590;SDS011;35496;-21.974;-46.800;2022-07-29T12:47:14;9.73;;;1.65;;
49590;SDS011;35496;-21.974;-46.800;2022-07-29T12:49:40;11.75;;;2.70;;
49590;SDS011;35496;-21.974;-46.800;2022-07-29T12:54:51;16.02;;;3.25;;
49590;SDS011;35496;-21.974;-46.800;2022-07-29T12:57:17;14.00;;;2.78;;
49590;SDS011;35496;-21.974;-46.800;2022-07-29T12:59:43;8.30;;;2.00;;
49590;SDS011;35496;-21.974;-46.800;2022-07-29T13:02:22;10.13;;;3.20;;
49590;SDS011;35496;-21.974;-46.800;2022-07-29T13:04:58;3.97;;;1.70;;
49590;SDS011;35496;-21.974;-46.800;2022-07-29T13:07:28;2.35;;;1.50;;
49590;SDS011;35496;-21.974;-46.800;2022-07-29T13:09:58;12.18;;;2.40;;
49590;SDS011;35496;-21.974;-46.800;2022-07-29T13:12:35;7.53;;;2.25;;
49590;SDS011;35496;-21.974;-46.800;2022-07-29T13:15:11;6.80;;;1.98;;
49590;SDS011;35496;-21.974;-46.800;2022-07-29T13:17:41;11.27;;;1.85;;
49590;SDS011;35496;-21.974;-46.800;2022-07-29T13:20:08;9.60;;;1.73;;
49590;SDS011;35496;-21.974;-46.800;2022-07-29T13:22:37;5.00;;;1.60;;
49590;SDS011;35496;-21.974;-46.800;2022-07-29T13:25:05;5.20;;;1.52;;
49590;SDS011;35496;-21.974;-46.800;2022-07-29T13:27:37;13.35;;;2.67;;
49590;SDS011;35496;-21.974;-46.800;2022-07-29T13:30:04;7.00;;;1.33;;
49590;SDS011;35496;-21.974;-46.800;2022-07-29T13:32:31;8.15;;;1.88;;
49590;SDS011;35496;-21.974;-46.800;2022-07-29T13:35:01;8.50;;;2.05;;
49590;SDS011;35496;-21.974;-46.800;2022-07-29T13:37:27;4.65;;;1.98;;
49590;SDS011;35496;-21.974;-46.800;2022-07-29T13:39:55;7.95;;;1.88;;
49590;SDS011;35496;-21.974;-46.800;2022-07-29T13:42:22;4.72;;;1.83;;
49590;SDS011;35496;-21.974;-46.800;2022-07-29T13:44:48;9.27;;;2.10;;
49590;SDS011;35496;-21.974;-46.800;2022-07-29T13:47:16;7.20;;;2.30;;
49590;SDS011;35496;-21.974;-46.800;2022-07-29T13:49:42;11.25;;;2.67;;
49590;SDS011;35496;-21.974;-46.800;2022-07-29T13:52:08;8.55;;;1.70;;
49590;SDS011;35496;-21.974;-46.800;2022-07-29T13:54:34;9.35;;;1.52;;
49590;SDS011;35496;-21.974;-46.800;2022-07-29T13:57:07;11.38;;;1.90;;
49590;SDS011;35496;-21.974;-46.800;2022-07-29T13:59:33;6.45;;;1.60;;
49590;SDS011;35496;-21.974;-46.800;2022-07-29T14:01:59;8.18;;;1.95;;
49590;SDS011;35496;-21.974;-46.800;2022-07-29T14:04:26;6.50;;;1.90;;
49590;SDS011;35496;-21.974;-46.800;2022-07-29T14:06:52;10.00;;;2.47;;
49590;SDS011;35496;-21.974;-46.800;2022-07-29T14:09:18;8.18;;;2.20;;
49590;SDS011;35496;-21.974;-46.800;2022-07-29T14:11:44;5.43;;;2.03;;
49590;SDS011;35496;-21.974;-46.800;2022-07-29T14:14:11;8.77;;;2.90;;
49590;SDS011;35496;-21.974;-46.800;2022-07-29T14:16:37;5.90;;;2.08;;
49590;SDS011;35496;-21.974;-46.800;2022-07-29T14:19:03;23.42;;;3.42;;
49590;SDS011;35496;-21.974;-46.800;2022-07-29T14:21:29;6.90;;;2.05;;
49590;SDS011;35496;-21.974;-46.800;2022-07-29T14:23:55;18.98;;;2.97;;
49590;SDS011;35496;-21.974;-46.800;2022-07-29T14:26:22;16.83;;;3.28;;
49590;SDS011;35496;-21.974;-46.800;2022-07-29T14:28:48;11.68;;;2.47;;
49590;SDS011;35496;-21.974;-46.800;2022-07-29T14:31:15;14.18;;;3.33;;
49590;SDS011;35496;-21.974;-46.800;2022-07-29T14:33:41;8.32;;;2.83;;
49590;SDS011;35496;-21.974;-46.800;2022-07-29T14:36:08;5.13;;;1.90;;
49590;SDS011;35496;-21.974;-46.800;2022-07-29T14:38:35;7.32;;;2.10;;
49590;SDS011;35496;-21.974;-46.800;2022-07-29T14:41:01;5.88;;;1.73;;
49590;SDS011;35496;-21.974;-46.800;2022-07-29T14:43:27;5.20;;;1.77;;
49590;SDS011;35496;-21.974;-46.800;2022-07-29T14:45:53;12.95;;;2.70;;
49590;SDS011;35496;-21.974;-46.800;2022-07-29T14:48:20;9.68;;;1.95;;
49590;SDS011;35496;-21.974;-46.800;2022-07-29T14:50:46;10.27;;;2.75;;
49590;SDS011;35496;-21.974;-46.800;2022-07-29T14:53:12;9.32;;;2.75;;
49590;SDS011;35496;-21.974;-46.800;2022-07-29T14:55:38;9.65;;;2.53;;